createdAt,value
2018-07-05T00:01:01.321Z,18.16
2018-07-05T00:03:40.805Z,18.20
2018-07-05T00:06:20.286Z,18.22
2018-07-05T00:08:59.874Z,18.22
2018-07-05T00:11:39.472Z,18.29
2018-07-05T00:14:18.930Z,18.30
2018-07-05T00:16:58.542Z,18.27
2018-07-05T00:19:38.182Z,18.25
2018-07-05T00:22:17.595Z,18.30
2018-07-05T00:24:57.044Z,18.25
2018-07-05T00:27:36.650Z,18.18
2018-07-05T00:30:16.157Z,18.14
2018-07-05T00:32:55.762Z,18.13
2018-07-05T00:35:35.338Z,18.14
2018-07-05T00:38:14.892Z,18.08
2018-07-05T00:40:54.396Z,18.05
2018-07-05T00:43:33.961Z,18.07
2018-07-05T00:46:13.569Z,18.16
2018-07-05T00:48:53.121Z,18.21
2018-07-05T00:51:32.705Z,18.14
2018-07-05T00:54:12.302Z,18.14
2018-07-05T00:56:51.803Z,18.17
2018-07-05T00:59:31.389Z,18.17
2018-07-05T01:02:10.985Z,18.20
2018-07-05T01:04:50.606Z,18.26
2018-07-05T01:07:30.058Z,18.24
2018-07-05T01:10:09.659Z,18.13
2018-07-05T01:12:49.222Z,18.06
2018-07-05T01:15:28.811Z,18.07
2018-07-05T01:18:08.425Z,18.02
2018-07-05T01:20:48.065Z,17.93
2018-07-05T01:23:27.714Z,17.92
2018-07-05T01:26:07.350Z,17.92
2018-07-05T01:28:46.877Z,17.92
2018-07-05T01:31:26.453Z,17.91
2018-07-05T01:34:06.026Z,17.92
2018-07-05T01:36:45.643Z,17.86
2018-07-05T01:39:25.157Z,17.86
2018-07-05T01:42:04.746Z,18.00
2018-07-05T01:44:44.330Z,18.07
2018-07-05T01:47:23.801Z,18.15
2018-07-05T01:50:03.372Z,17.94
2018-07-05T01:52:42.977Z,17.85
2018-07-05T01:55:22.578Z,17.84
2018-07-05T01:58:02.160Z,17.75
2018-07-05T02:00:41.643Z,17.72
2018-07-05T02:03:21.206Z,17.54
2018-07-05T02:06:00.854Z,17.46
2018-07-05T02:08:40.448Z,17.37
2018-07-05T02:11:20.035Z,17.40
2018-07-05T02:13:59.543Z,17.38
2018-07-05T02:16:39.057Z,17.42
2018-07-05T02:19:18.607Z,17.45
2018-07-05T02:21:58.236Z,17.39
2018-07-05T02:24:37.802Z,17.40
2018-07-05T02:27:17.394Z,17.38
2018-07-05T02:29:56.970Z,17.35
2018-07-05T02:32:36.552Z,17.24
2018-07-05T02:35:16.145Z,17.16
2018-07-05T02:38:00.987Z,17.12
2018-07-05T02:40:40.498Z,17.14
2018-07-05T02:43:20.062Z,17.22
2018-07-05T02:45:59.691Z,17.16
2018-07-05T02:48:39.282Z,17.12
2018-07-05T02:51:18.778Z,17.03
2018-07-05T02:53:58.349Z,16.98
2018-07-05T02:56:37.856Z,16.78
2018-07-05T02:59:17.426Z,16.69
2018-07-05T03:01:57.075Z,16.61
2018-07-05T03:04:36.698Z,16.61
2018-07-05T03:07:16.315Z,16.65
2018-07-05T03:09:55.871Z,16.65
2018-07-05T03:12:35.376Z,16.63
2018-07-05T03:15:15.249Z,16.65
2018-07-05T03:17:54.862Z,16.70
2018-07-05T03:20:34.297Z,16.70
2018-07-05T03:23:13.769Z,16.68
2018-07-05T03:25:53.403Z,16.76
2018-07-05T03:28:33.015Z,16.75
2018-07-05T03:31:12.586Z,16.78
2018-07-05T03:33:52.212Z,16.66
2018-07-05T03:36:31.829Z,16.74
2018-07-05T03:39:11.475Z,16.63
2018-07-05T03:41:50.961Z,16.55
2018-07-05T03:44:30.535Z,16.38
2018-07-05T03:47:10.547Z,16.35
2018-07-05T03:49:50.122Z,16.21
2018-07-05T03:52:29.599Z,16.21
2018-07-05T03:55:09.194Z,16.43
2018-07-05T03:57:48.764Z,16.54
2018-07-05T04:00:28.406Z,16.53
2018-07-05T04:03:07.908Z,16.44
2018-07-05T04:05:47.506Z,16.47
2018-07-05T04:08:27.123Z,16.51
2018-07-05T04:11:06.626Z,16.49
2018-07-05T04:13:46.184Z,16.53
2018-07-05T04:16:25.777Z,16.48
2018-07-05T04:19:05.321Z,16.51
2018-07-05T04:21:44.901Z,16.54
2018-07-05T04:24:24.467Z,16.62
2018-07-05T04:27:04.065Z,16.84
2018-07-05T04:29:43.673Z,17.09
2018-07-05T04:32:23.320Z,17.43
2018-07-05T04:35:02.905Z,17.74
2018-07-05T04:37:42.424Z,18.11
2018-07-05T04:40:22.007Z,18.33
2018-07-05T04:43:01.667Z,18.58
2018-07-05T04:45:41.239Z,18.80
2018-07-05T04:48:20.894Z,18.99
2018-07-05T04:51:00.521Z,19.40
2018-07-05T04:53:40.138Z,19.55
2018-07-05T04:56:19.565Z,19.62
2018-07-05T04:58:59.222Z,20.08
2018-07-05T05:01:38.725Z,20.50
2018-07-05T05:04:18.404Z,20.84
2018-07-05T05:06:57.958Z,20.68
2018-07-05T05:09:37.434Z,20.52
2018-07-05T05:12:17.253Z,19.71
2018-07-05T05:14:56.862Z,19.28
2018-07-05T05:17:36.328Z,19.50
2018-07-05T05:20:15.949Z,19.58
2018-07-05T05:22:55.601Z,19.50
2018-07-05T05:25:35.193Z,20.09
2018-07-05T05:28:14.878Z,20.32
2018-07-05T05:30:54.373Z,20.33
2018-07-05T05:33:34.020Z,20.79
2018-07-05T05:36:13.611Z,20.54
2018-07-05T05:38:53.165Z,20.86
2018-07-05T05:41:32.789Z,20.55
2018-07-05T05:44:12.438Z,20.20
2018-07-05T05:46:52.018Z,20.64
2018-07-05T05:49:31.624Z,20.85
2018-07-05T05:52:11.229Z,20.59
2018-07-05T05:54:50.866Z,20.54
2018-07-05T05:57:30.436Z,20.84
2018-07-05T06:00:10.065Z,20.99
2018-07-05T06:02:49.671Z,20.72
2018-07-05T06:05:29.245Z,20.98
2018-07-05T06:08:08.774Z,21.41
2018-07-05T06:10:48.389Z,21.04
2018-07-05T06:13:27.961Z,21.04
2018-07-05T06:16:07.592Z,21.13
2018-07-05T06:18:47.190Z,21.40
2018-07-05T06:21:26.775Z,20.93
2018-07-05T06:24:06.446Z,21.14
2018-07-05T06:26:45.815Z,21.79
2018-07-05T06:29:26.404Z,21.44
2018-07-05T06:32:05.771Z,21.22
2018-07-05T06:34:45.403Z,21.13
2018-07-05T06:37:25.381Z,21.61
2018-07-05T06:40:04.938Z,21.51
2018-07-05T06:42:44.436Z,21.61
2018-07-05T06:45:24.055Z,21.92
2018-07-05T06:48:03.646Z,21.84
2018-07-05T06:50:43.156Z,22.43
2018-07-05T06:53:22.783Z,22.43
2018-07-05T06:56:02.217Z,22.19
2018-07-05T06:58:41.803Z,22.27
2018-07-05T07:01:21.497Z,22.65
2018-07-05T07:04:01.139Z,22.47
2018-07-05T07:06:40.729Z,22.34
2018-07-05T07:09:20.285Z,22.55
2018-07-05T07:11:59.842Z,22.54
2018-07-05T07:14:39.406Z,22.37
2018-07-05T07:17:19.063Z,22.32
2018-07-05T07:19:58.517Z,21.96
2018-07-05T07:22:38.141Z,22.20
2018-07-05T07:25:17.797Z,22.18
2018-07-05T07:27:57.319Z,22.39
2018-07-05T07:30:36.896Z,22.20
2018-07-05T07:33:16.438Z,22.39
2018-07-05T07:35:56.160Z,22.64
2018-07-05T07:38:45.180Z,22.45
2018-07-05T07:52:38.272Z,23.14
2018-07-05T07:55:21.016Z,23.08
2018-07-05T07:57:48.357Z,22.81
2018-07-05T08:03:06.080Z,23.12
2018-07-05T08:05:33.421Z,22.79
2018-07-05T08:08:00.734Z,23.46
2018-07-05T08:10:28.088Z,23.45
2018-07-05T08:12:55.369Z,23.07
2018-07-05T08:15:22.690Z,23.33
2018-07-05T08:17:50.000Z,23.15
2018-07-05T08:20:19.797Z,23.44
2018-07-05T08:22:47.146Z,23.17
2018-07-05T08:25:14.682Z,23.47
2018-07-05T08:27:41.996Z,23.20
2018-07-05T08:30:09.346Z,23.09
2018-07-05T08:32:36.637Z,23.75
2018-07-05T08:35:03.941Z,23.21
2018-07-05T08:37:31.262Z,24.01
2018-07-05T08:39:58.756Z,23.98
2018-07-05T08:42:26.153Z,23.91
2018-07-05T08:44:53.639Z,23.64
2018-07-05T08:47:20.946Z,23.70
2018-07-05T08:49:48.416Z,23.89
2018-07-05T08:52:15.959Z,24.72
2018-07-05T08:54:43.359Z,24.69
2018-07-05T08:57:10.940Z,23.69
2018-07-05T08:59:38.322Z,23.76
2018-07-05T09:02:05.662Z,23.94
2018-07-05T09:04:33.290Z,24.68
2018-07-05T09:07:00.610Z,23.96
2018-07-05T09:09:27.959Z,23.52
2018-07-05T09:11:55.326Z,24.10
2018-07-05T09:14:22.712Z,24.64
2018-07-05T09:16:50.032Z,24.83
2018-07-05T09:19:17.985Z,25.02
2018-07-05T09:21:45.265Z,24.75
2018-07-05T09:24:12.591Z,24.81
2018-07-05T09:26:41.168Z,24.44
2018-07-05T09:29:08.725Z,24.11
2018-07-05T09:31:36.003Z,24.39
2018-07-05T09:34:03.263Z,24.79
2018-07-05T09:36:30.878Z,24.32
2018-07-05T09:38:58.339Z,24.49
2018-07-05T09:41:25.827Z,24.52
2018-07-05T09:43:53.118Z,24.41
2018-07-05T09:46:20.924Z,23.68
2018-07-05T09:48:48.207Z,24.55
2018-07-05T09:51:15.523Z,24.92
2018-07-05T09:53:43.063Z,24.41
2018-07-05T09:56:10.552Z,24.68
2018-07-05T09:58:37.836Z,25.10
2018-07-05T10:01:09.654Z,24.57
2018-07-05T10:03:37.188Z,24.61
2018-07-05T10:06:04.651Z,24.49
2018-07-05T10:08:32.194Z,24.54
2018-07-05T10:10:59.547Z,24.69
2018-07-05T10:13:26.980Z,24.22
2018-07-05T10:15:54.163Z,25.08
2018-07-05T10:18:21.457Z,25.17
2018-07-05T10:20:49.946Z,25.27
2018-07-05T10:23:17.214Z,25.46
2018-07-05T10:25:44.537Z,25.65
2018-07-05T10:28:11.804Z,25.43
2018-07-05T10:30:51.469Z,25.72
2018-07-05T10:33:31.121Z,25.57
2018-07-05T10:35:59.527Z,25.10
2018-07-05T10:38:26.837Z,25.68
2018-07-05T10:41:06.470Z,25.26
2018-07-05T10:43:46.586Z,25.14
2018-07-05T10:46:26.299Z,24.88
2018-07-05T10:49:06.018Z,25.41
2018-07-05T10:51:45.845Z,25.88
2018-07-05T10:54:25.367Z,25.24
2018-07-05T10:57:05.168Z,25.39
2018-07-05T10:59:45.018Z,25.58
2018-07-05T11:02:27.544Z,26.00
2018-07-05T11:05:07.103Z,25.55
2018-07-05T11:07:47.113Z,25.43
2018-07-05T11:10:26.737Z,25.53
2018-07-05T11:13:06.465Z,25.39
2018-07-05T11:15:46.083Z,25.96
2018-07-05T11:18:26.275Z,25.65
2018-07-05T11:21:06.058Z,25.31
2018-07-05T11:23:46.728Z,25.74
2018-07-05T11:26:26.806Z,25.63
2018-07-05T11:29:06.414Z,25.53
2018-07-05T11:31:45.961Z,25.65
2018-07-05T11:34:26.187Z,25.45
2018-07-05T11:37:05.956Z,26.02
2018-07-05T11:39:45.705Z,26.30
2018-07-05T11:42:25.637Z,26.12
2018-07-05T11:45:05.151Z,26.21
2018-07-05T11:47:45.481Z,25.66
2018-07-05T11:50:25.290Z,25.30
2018-07-05T11:53:04.981Z,25.04
2018-07-05T11:55:44.741Z,25.28
2018-07-05T11:58:24.532Z,25.16
2018-07-05T12:01:04.165Z,26.08
2018-07-05T12:03:43.758Z,26.23
2018-07-05T12:06:23.652Z,26.69
2018-07-05T12:09:04.830Z,26.34
2018-07-05T12:11:44.628Z,26.18
2018-07-05T12:14:24.368Z,26.23
2018-07-05T12:17:04.094Z,26.10
2018-07-05T12:19:43.720Z,26.44
2018-07-05T12:22:24.498Z,26.86
2018-07-05T12:25:04.370Z,27.04
2018-07-05T12:27:44.369Z,27.63
2018-07-05T12:30:24.092Z,27.00
2018-07-05T12:33:04.017Z,26.95
2018-07-05T12:35:43.926Z,26.55
2018-07-05T12:38:23.758Z,26.16
2018-07-05T12:41:03.648Z,26.61
2018-07-05T12:43:43.378Z,26.35
2018-07-05T12:46:22.941Z,26.71
2018-07-05T12:49:02.724Z,26.35
2018-07-05T12:51:42.681Z,26.35
2018-07-05T12:54:22.503Z,26.55
2018-07-05T12:57:02.209Z,26.41
2018-07-05T12:59:41.893Z,26.64
2018-07-05T13:02:21.599Z,26.61
2018-07-05T13:05:01.262Z,26.93
2018-07-05T13:07:41.025Z,26.62
2018-07-05T13:10:20.934Z,26.91
2018-07-05T13:13:00.777Z,26.79
2018-07-05T13:15:40.567Z,27.02
2018-07-05T13:18:20.624Z,26.88
2018-07-05T13:21:00.254Z,26.77
2018-07-05T13:23:40.237Z,26.44
2018-07-05T13:26:19.854Z,26.65
2018-07-05T13:28:59.752Z,26.94
2018-07-05T13:31:39.342Z,27.11
2018-07-05T13:34:19.123Z,27.16
2018-07-05T13:36:59.225Z,26.93
2018-07-05T13:39:38.843Z,26.54
2018-07-05T13:42:19.049Z,26.52
2018-07-05T13:44:58.714Z,26.48
2018-07-05T13:47:38.414Z,26.36
2018-07-05T13:50:18.272Z,26.87
2018-07-05T13:52:58.093Z,26.69
2018-07-05T13:55:37.576Z,27.39
2018-07-05T13:58:17.676Z,27.07
2018-07-05T14:00:57.303Z,27.31
2018-07-05T14:03:36.917Z,26.39
2018-07-05T14:06:16.631Z,26.83
2018-07-05T14:08:56.525Z,26.51
2018-07-05T14:11:36.197Z,26.90
2018-07-05T14:14:15.817Z,26.82
2018-07-05T14:16:55.555Z,27.06
2018-07-05T14:19:35.602Z,26.77
2018-07-05T14:22:15.289Z,26.57
2018-07-05T14:24:54.835Z,26.33
2018-07-05T14:27:35.062Z,26.35
2018-07-05T14:30:14.666Z,26.43
2018-07-05T14:32:54.591Z,26.46
2018-07-05T14:35:34.363Z,25.99
2018-07-05T14:38:15.945Z,26.25
2018-07-05T14:40:55.838Z,26.37
2018-07-05T14:43:35.717Z,26.40
2018-07-05T14:46:15.338Z,26.28
2018-07-05T14:48:54.927Z,26.37
2018-07-05T14:51:34.516Z,26.76
2018-07-05T14:54:14.197Z,26.84
2018-07-05T14:56:53.781Z,26.72
2018-07-05T14:59:33.422Z,26.67
2018-07-05T15:02:13.466Z,26.99
2018-07-05T15:04:53.541Z,26.61
2018-07-05T15:07:33.156Z,26.57
2018-07-05T15:10:12.841Z,26.45
2018-07-05T15:12:52.921Z,26.45
2018-07-05T15:15:32.588Z,26.32
2018-07-05T15:18:12.523Z,26.30
2018-07-05T15:20:52.515Z,26.25
2018-07-05T15:23:32.141Z,26.02
2018-07-05T15:26:12.094Z,25.87
2018-07-05T15:28:55.830Z,25.89
2018-07-05T15:31:35.351Z,25.87
2018-07-05T15:34:14.960Z,25.56
2018-07-05T15:36:54.607Z,25.67
2018-07-05T15:39:34.797Z,25.66
2018-07-05T15:42:14.705Z,25.65
2018-07-05T15:44:54.333Z,25.76
2018-07-05T15:47:34.164Z,25.65
2018-07-05T15:50:13.781Z,25.75
2018-07-05T15:52:53.392Z,25.79
2018-07-05T15:55:33.141Z,25.79
2018-07-05T15:58:12.682Z,25.70
2018-07-05T16:00:52.403Z,25.68
2018-07-05T16:03:32.135Z,25.54
2018-07-05T16:06:11.673Z,25.38
2018-07-05T16:08:51.787Z,25.36
2018-07-05T16:11:31.494Z,24.90
2018-07-05T16:14:11.530Z,24.79
2018-07-05T16:16:51.290Z,24.95
2018-07-05T16:19:30.995Z,24.99
2018-07-05T16:22:10.697Z,24.83
2018-07-05T16:24:50.440Z,24.73
2018-07-05T16:27:30.499Z,24.69
2018-07-05T16:30:10.066Z,24.87
2018-07-05T16:32:49.729Z,24.99
2018-07-05T16:35:29.459Z,25.04
2018-07-05T16:38:09.345Z,24.91
2018-07-05T16:40:49.874Z,24.87
2018-07-05T16:43:29.601Z,24.83
2018-07-05T16:46:09.329Z,24.49
2018-07-05T16:48:49.941Z,24.11
2018-07-05T16:51:29.717Z,24.25
2018-07-05T16:54:09.537Z,24.25
2018-07-05T16:56:54.014Z,24.26
2018-07-05T16:59:33.668Z,24.53
2018-07-05T17:02:13.250Z,24.43
2018-07-05T17:04:52.889Z,24.27
2018-07-05T17:07:32.505Z,24.15
2018-07-05T17:10:12.232Z,24.14
2018-07-05T17:12:52.019Z,23.98
2018-07-05T17:15:32.492Z,23.93
2018-07-05T17:18:13.099Z,23.77
2018-07-05T17:20:53.155Z,23.78
2018-07-05T17:23:32.924Z,23.67
2018-07-05T17:26:12.686Z,23.64
2018-07-05T17:28:52.467Z,23.88
2018-07-05T17:31:32.044Z,24.16
2018-07-05T17:34:11.841Z,24.14
2018-07-05T17:36:51.405Z,24.30
2018-07-05T17:39:37.947Z,24.27
2018-07-05T17:42:18.330Z,24.23
2018-07-05T17:44:57.885Z,24.16
2018-07-05T17:47:37.510Z,23.85
2018-07-05T17:50:18.753Z,23.83
2018-07-05T17:52:58.281Z,23.95
2018-07-05T17:55:37.824Z,24.05
2018-07-05T17:58:17.446Z,24.38
2018-07-05T18:00:57.099Z,24.62
2018-07-05T18:03:36.765Z,24.76
2018-07-05T18:06:16.628Z,24.99
2018-07-05T18:08:56.286Z,25.32
2018-07-05T18:11:36.098Z,25.88
2018-07-05T18:14:16.041Z,25.73
2018-07-05T18:16:55.781Z,26.01
2018-07-05T18:19:36.009Z,25.83
2018-07-05T18:22:15.665Z,24.58
2018-07-05T18:24:56.401Z,25.21
2018-07-05T18:27:36.501Z,25.78
2018-07-05T18:30:16.181Z,27.52
2018-07-05T18:32:56.524Z,28.62
2018-07-05T18:35:36.123Z,29.62
2018-07-05T18:38:15.994Z,28.78
2018-07-05T18:40:55.698Z,26.10
2018-07-05T18:43:36.569Z,24.83
2018-07-05T18:46:16.325Z,24.56
2018-07-05T18:49:00.186Z,24.75
2018-07-05T18:51:39.946Z,24.66
2018-07-05T18:54:19.938Z,24.60
2018-07-05T18:56:59.593Z,24.60
2018-07-05T18:59:39.617Z,24.48
2018-07-05T19:02:19.886Z,24.37
2018-07-05T19:04:59.659Z,24.30
2018-07-05T19:07:39.394Z,24.20
2018-07-05T19:10:20.018Z,24.18
2018-07-05T19:13:00.264Z,24.06
2018-07-05T19:15:40.221Z,23.98
2018-07-05T19:18:19.753Z,23.85
2018-07-05T19:21:02.986Z,23.72
2018-07-05T19:23:45.898Z,23.62
2018-07-05T19:26:27.047Z,23.52
2018-07-05T19:29:06.653Z,23.42
2018-07-05T19:31:46.719Z,23.38
2018-07-05T19:34:26.280Z,23.27
2018-07-05T19:37:06.949Z,23.19
2018-07-05T19:39:46.770Z,23.12
2018-07-05T19:42:26.523Z,23.09
2018-07-05T19:45:06.325Z,22.88
2018-07-05T19:47:46.127Z,22.80
2018-07-05T19:50:25.776Z,22.68
2018-07-05T19:53:05.533Z,22.46
2018-07-05T19:55:45.447Z,22.40
2018-07-05T19:58:25.235Z,22.30
2018-07-05T20:01:05.251Z,22.27
2018-07-05T20:03:44.809Z,22.21
2018-07-05T20:06:25.560Z,22.03
2018-07-05T20:09:05.963Z,21.96
2018-07-05T20:11:50.819Z,21.85
2018-07-05T20:14:30.431Z,21.81
2018-07-05T20:17:10.553Z,21.78
2018-07-05T20:19:50.183Z,21.77
2018-07-05T20:22:30.163Z,21.61
2018-07-05T20:25:10.272Z,21.44
2018-07-05T20:27:50.371Z,21.50
2018-07-05T20:30:30.177Z,21.45
2018-07-05T20:33:09.764Z,21.41
2018-07-05T20:35:50.387Z,21.26
2018-07-05T20:38:30.050Z,21.06
2018-07-05T20:41:09.760Z,21.02
2018-07-05T20:43:49.529Z,21.03
2018-07-05T20:46:29.237Z,21.17
2018-07-05T20:49:08.954Z,21.13
2018-07-05T20:51:48.513Z,21.09
2018-07-05T20:54:28.549Z,21.13
2018-07-05T20:57:08.151Z,21.25
2018-07-05T21:02:40.232Z,21.31
2018-07-05T21:05:20.511Z,21.31
2018-07-05T21:08:00.498Z,21.28
2018-07-05T21:10:44.340Z,21.21
2018-07-05T21:13:24.691Z,21.17
2018-07-05T21:16:04.342Z,21.14
2018-07-05T21:18:44.008Z,21.09
2018-07-05T21:21:23.689Z,20.98
2018-07-05T21:24:03.497Z,20.89
2018-07-05T21:26:43.292Z,20.79
2018-07-05T21:29:31.073Z,20.71
2018-07-05T21:32:11.024Z,20.64
2018-07-05T21:34:50.746Z,20.54
2018-07-05T21:37:30.315Z,20.46
2018-07-05T21:40:10.242Z,20.38
2018-07-05T21:42:50.316Z,20.35
2018-07-05T21:45:30.429Z,20.38
2018-07-05T21:48:10.534Z,20.37
2018-07-05T21:50:50.143Z,20.27
2018-07-05T21:53:29.754Z,20.21
2018-07-05T21:56:10.017Z,20.14
2018-07-05T21:58:49.841Z,20.04
2018-07-05T22:01:29.559Z,19.91
2018-07-05T22:04:09.335Z,19.78
2018-07-05T22:06:50.160Z,19.79
2018-07-05T22:09:29.899Z,19.76
2018-07-05T22:12:09.413Z,19.70
2018-07-05T22:14:49.964Z,19.59
2018-07-05T22:17:35.524Z,19.56
2018-07-05T22:20:20.607Z,19.56
2018-07-05T22:23:05.674Z,19.54
2018-07-05T22:25:50.775Z,19.44
2018-07-05T22:28:35.566Z,19.40
2018-07-05T22:31:20.567Z,19.41
2018-07-05T22:34:00.272Z,19.37
2018-07-05T22:36:39.842Z,19.33
2018-07-05T22:39:19.682Z,19.21
2018-07-05T22:41:59.305Z,19.04
2018-07-05T22:44:38.778Z,18.85
2018-07-05T22:47:18.505Z,18.61
2018-07-05T22:49:58.133Z,18.55
2018-07-05T22:52:37.982Z,18.44
2018-07-05T22:55:17.544Z,18.35
2018-07-05T22:57:57.386Z,18.28
2018-07-05T23:00:37.187Z,18.29
2018-07-05T23:03:16.686Z,18.26
2018-07-05T23:05:56.458Z,18.18
2018-07-05T23:08:36.840Z,18.14
2018-07-05T23:11:16.729Z,18.09
2018-07-05T23:13:56.647Z,18.01
2018-07-05T23:16:36.271Z,17.94
2018-07-05T23:19:16.035Z,17.81
2018-07-05T23:21:55.717Z,17.82
2018-07-05T23:24:35.641Z,17.73
2018-07-05T23:27:15.185Z,17.77
2018-07-05T23:29:55.054Z,17.78
2018-07-05T23:32:34.868Z,17.71
2018-07-05T23:35:14.558Z,17.65
2018-07-05T23:37:54.102Z,17.52
2018-07-05T23:40:33.766Z,17.51
2018-07-05T23:43:13.491Z,17.37
2018-07-05T23:45:53.093Z,17.31
2018-07-05T23:48:32.809Z,17.36
2018-07-05T23:51:12.770Z,17.34
2018-07-05T23:53:52.522Z,17.30
2018-07-05T23:56:32.107Z,17.22
2018-07-05T23:59:11.789Z,17.25
